Miyakojima, Japan

12:06 PM JST on August 30, 2014 (GMT +0900)
Miyako | Change Station
CLOSE
Current Station
Airport
Location: Miyakojima,
Elevation: 135 ft
Nearby Weather Stations

Elev 135 ft 24.79 °N, 125.28 °E | Updated 6 minutes ago

Partly Cloudy
Partly Cloudy
88 °F
Feels Like 100 °F
N
4
Wind Variable Wind from Variable

Today
High -- | Low -- °F
--% Chance of Precip.
Yesterday
High -- | Low -- °F
Precip. -- in
6:18 AM 6:59 PM
Waxing Crescent, 18% visible
Pressure 29.89 in
Visibility 6.2 miles
Clouds Few 2000 ft
Heat Index 100 °F
Dew Point 77 °F
Humidity 70%
Rainfall 0.00 in
Snow Depth Not available.
UV 14 out of 12
Pollen Not available.
Air Quality Not available.
Flu Activity Not available.
METAR ROMY 300300Z VRB03KT 9999 VCSH FEW020 BKN/// 31/25 Q1012

More Conditions Fewer Conditions

Pressure 29.89 in
Visibility 6.2 miles
Clouds Few 2000 ft
Heat Index 100 °F
Dew Point 77 °F
Humidity 70%
Rainfall 0.00 in
Snow Depth Not available.
UV 14 out of 12
Pollen Not available.
Air Quality Not available.
Flu Activity Not available.
METAR ROMY 300300Z VRB03KT 9999 VCSH FEW020 BKN/// 31/25 Q1012

More Conditions Fewer Conditions

10-Day Weather Forecast

Almanac

Astronomy

Aug. 30, 2014 Rise Set
Actual Time 6:18 AM JST 6:59 PM JST
Civil Twilight 5:55 AM JST 7:23 PM JST
Nautical Twilight 5:28 AM JST 7:50 PM JST
Astronomical Twilight 5:00 AM JST 8:18 PM JST
Moon 10:01 AM JST 9:44 PM JST
Length of Visible Light 13h 27m
Length of Day
12h 41m
Tomorrow will be 1m 23s shorter.
Waxing Crescent, 18% of the Moon is Illuminated
Aug 29
Waxing Crescent
Sep 2
First Quarter
Sep 8
Full
Sep 15
Last Quarter
Sep 24
New

Yesterday's Extremes

Country Highs Country Lows

Community

WunderPhotos

Upload Photos

1,748,425 photos uploaded!

Nearby

Snow Depth

Not available.

Earthquake Activity

City Distance Mag. Time & Date
No recent earthquake activity has been reported nearby.
Minimum magnitude displayed is 2.5.

Coastal Water Temperatures

Place Temperature
No Stations Reporting

Nearby Weather Stations